Time;durP1;ratioP1;P1;durP2;ratioP2;P2;SDS_P1;SDS_P2;PMS_P1;PMS_P2;Temp;Humidity;BMP_temperature;BMP_pressure;BME280_temperature;BME280_humidity;BME280_pressure;Samples;Min_cycle;Max_cycle;Signal;HPM_P1;HPM_P2
2023/08/01 12:18:25;;;;;;;1.38;1.15;;;;;;;28.88;52.54;98715.53;1016335;23;20328;-96
2023/08/01 12:20:52;;;;;;;1.20;0.80;;;;;;;28.88;53.31;98753.38;4852181;29;20129;-95
2023/08/01 12:23:18;;;;;;;0.63;0.63;;;;;;;28.94;54.52;98750.25;4838080;29;20033;-95
2023/08/01 12:25:44;;;;;;;0.82;0.80;;;;;;;28.81;55.21;98744.94;4859133;29;20140;-96
2023/08/01 12:28:10;;;;;;;0.90;0.57;;;;;;;28.40;55.99;98721.75;4844973;29;20103;-95
2023/08/01 12:30:39;;;;;;;0.95;0.90;;;;;;;28.36;58.30;98732.84;4842411;29;20061;-95
2023/08/01 12:33:05;;;;;;;0.30;0.30;;;;;;;28.27;59.23;98717.19;4836863;29;20045;-94
2023/08/01 12:35:31;;;;;;;1.17;1.08;;;;;;;28.19;60.38;98705.13;4826498;29;20058;-95
2023/08/01 12:37:58;;;;;;;1.88;1.27;;;;;;;28.39;59.62;98700.28;4835730;29;20106;-93
2023/08/01 12:40:24;;;;;;;0.73;0.73;;;;;;;28.39;58.60;98705.97;4838958;29;20069;-95
2023/08/01 12:42:52;;;;;;;0.43;0.43;;;;;;;28.13;59.90;98689.66;4832926;29;20090;-94
2023/08/01 12:45:18;;;;;;;0.60;0.60;;;;;;;28.21;60.15;98713.09;4822253;29;20494;-95
2023/08/01 12:47:48;;;;;;;0.80;0.80;;;;;;;28.22;61.86;98703.22;4827450;29;20390;-95
2023/08/01 12:50:16;;;;;;;0.80;0.80;;;;;;;28.24;58.47;98695.56;4857211;29;20045;-94
2023/08/01 12:52:45;;;;;;;0.85;0.85;;;;;;;28.24;60.76;98697.66;4841839;29;20049;-93
2023/08/01 12:55:18;;;;;;;1.02;0.93;;;;;;;28.28;61.11;98700.81;4824641;29;20045;-95
2023/08/01 12:57:44;;;;;;;0.70;0.60;;;;;;;28.19;59.56;98699.41;4851387;29;20047;-94
2023/08/01 13:00:10;;;;;;;0.55;0.47;;;;;;;28.08;61.66;98716.28;4851516;29;20100;-94
2023/08/01 13:02:39;;;;;;;0.40;0.40;;;;;;;27.58;63.76;98670.94;4854293;29;20069;-94
2023/08/01 13:05:07;;;;;;;0.60;0.60;;;;;;;27.65;63.42;98675.81;4853460;29;20033;-94
2023/08/01 13:07:34;;;;;;;1.27;1.10;;;;;;;27.74;64.45;98688.63;4851020;29;20057;-94
2023/08/01 13:10:00;;;;;;;1.42;0.82;;;;;;;27.80;63.46;98698.41;4862929;29;20042;-95
2023/08/01 13:12:26;;;;;;;1.05;0.65;;;;;;;27.70;63.71;98705.38;4814299;29;20042;-95
2023/08/01 13:14:52;;;;;;;0.45;0.45;;;;;;;27.60;65.40;98719.53;4849136;29;20049;-95
2023/08/01 13:17:18;;;;;;;1.00;0.85;;;;;;;27.42;66.13;98703.75;4820043;29;20501;-94
2023/08/01 13:19:44;;;;;;;0.60;0.60;;;;;;;27.41;67.91;98701.50;4815463;29;20582;-94
2023/08/01 13:22:12;;;;;;;1.08;1.00;;;;;;;27.23;69.92;98697.88;4815808;29;20133;-96
2023/08/01 13:24:39;;;;;;;0.98;0.80;;;;;;;27.30;71.04;98702.72;4820086;29;20030;-94
2023/08/01 13:27:09;;;;;;;0.68;0.68;;;;;;;27.13;70.77;98672.19;4841479;29;20049;-94
2023/08/01 13:29:35;;;;;;;1.33;1.00;;;;;;;27.40;70.03;98705.69;4815034;29;20053;-94
2023/08/01 13:32:00;;;;;;;0.88;0.85;;;;;;;27.34;69.99;98691.69;4810845;29;20034;-94
2023/08/01 13:34:26;;;;;;;0.70;0.70;;;;;;;27.28;69.89;98680.56;4831235;29;20045;-95
2023/08/01 13:36:52;;;;;;;0.82;0.82;;;;;;;27.38;68.55;98677.03;4830067;29;20035;-94
2023/08/01 13:39:17;;;;;;;1.23;1.15;;;;;;;27.42;68.65;98675.25;4838735;29;20037;-93
2023/08/01 13:41:43;;;;;;;1.15;0.77;;;;;;;27.38;69.64;98679.91;4841783;29;20538;-94
2023/08/01 13:44:09;;;;;;;0.75;0.73;;;;;;;27.42;69.64;98692.34;4814983;29;20042;-94
2023/08/01 13:46:35;;;;;;;1.48;1.20;;;;;;;27.24;70.72;98673.78;4815145;29;20082;-93
2023/08/01 13:49:03;;;;;;;1.40;0.60;;;;;;;27.26;70.72;98680.38;4850022;29;20068;-93
2023/08/01 13:51:32;;;;;;;0.75;0.60;;;;;;;27.36;70.75;98701.16;4826125;29;20042;-94
2023/08/01 13:53:58;;;;;;;1.52;1.17;;;;;;;27.38;72.47;98696.97;4858305;29;20119;-93
2023/08/01 13:56:25;;;;;;;0.65;0.65;;;;;;;27.16;73.75;98658.84;4831839;29;20042;-95
2023/08/01 13:58:51;;;;;;;0.88;0.88;;;;;;;27.33;73.75;98695.88;4824986;29;20121;-94
2023/08/01 14:01:22;;;;;;;0.65;0.60;;;;;;;27.06;73.71;98640.91;4847509;29;20535;-93
2023/08/01 14:03:47;;;;;;;3.97;1.42;;;;;;;27.26;72.78;98679.63;4811885;29;20049;-93
2023/08/01 14:06:14;;;;;;;3.15;0.88;;;;;;;27.14;73.38;98684.28;4824783;29;20041;-94
2023/08/01 14:08:41;;;;;;;0.80;0.80;;;;;;;27.07;74.60;98680.19;4823328;29;20045;-94
2023/08/01 14:11:10;;;;;;;2.75;1.10;;;;;;;27.14;75.12;98695.69;4821791;29;20091;-93
2023/08/01 14:13:36;;;;;;;0.98;0.82;;;;;;;27.19;75.26;98711.75;4838327;29;20054;-94
2023/08/01 14:16:02;;;;;;;0.55;0.50;;;;;;;27.22;75.54;98713.44;4821982;29;20042;-94
2023/08/01 14:18:31;;;;;;;0.52;0.50;;;;;;;27.18;75.48;98713.09;4846053;29;20042;-94
2023/08/01 14:20:56;;;;;;;1.15;0.90;;;;;;;27.17;76.18;98725.84;4825083;29;20037;-95
2023/08/01 14:23:22;;;;;;;1.13;1.05;;;;;;;27.18;77.40;98736.63;4831226;29;20045;-94
2023/08/01 14:25:48;;;;;;;0.60;0.60;;;;;;;26.80;79.91;98719.13;4872870;29;20030;-94
2023/08/01 14:28:14;;;;;;;1.45;1.15;;;;;;;26.81;84.69;98766.88;4826733;29;20118;-92
2023/08/01 14:30:39;;;;;;;0.65;0.65;;;;;;;26.41;92.17;98815.28;4829115;29;20398;-96
2023/08/01 14:33:08;;;;;;;0.30;0.30;;;;;;;24.83;82.70;98850.28;4829881;29;20386;-93
2023/08/01 14:35:37;;;;;;;0.20;0.20;;;;;;;23.20;100.00;98827.84;4824830;29;20035;-95
2023/08/01 14:38:03;;;;;;;0.43;0.20;;;;;;;22.21;100.00;98825.25;4845569;29;20056;-95
2023/08/01 14:40:29;;;;;;;0.77;0.63;;;;;;;21.49;100.00;98857.72;4846846;29;20185;-96
2023/08/01 14:42:55;;;;;;;0.10;0.10;;;;;;;20.98;100.00;98885.97;4850168;29;20073;-94
2023/08/01 14:45:21;;;;;;;0.10;0.10;;;;;;;20.57;100.00;98906.03;4843460;29;20475;-94
2023/08/01 14:47:47;;;;;;;0.45;0.10;;;;;;;20.23;100.00;98922.56;4822092;29;20038;-95
2023/08/01 14:50:13;;;;;;;0.20;0.20;;;;;;;19.66;100.00;98908.84;4828565;29;20577;-95
2023/08/01 14:52:39;;;;;;;0.10;0.10;;;;;;;19.34;100.00;98917.81;4838688;29;20042;-96
2023/08/01 14:55:05;;;;;;;0.57;0.57;;;;;;;18.96;100.00;98888.75;4839209;29;20034;-94
2023/08/01 14:57:31;;;;;;;1.30;0.80;;;;;;;18.79;100.00;98935.06;4836278;29;20502;-93
2023/08/01 14:59:57;;;;;;;0.47;0.47;;;;;;;18.58;100.00;98955.09;4842317;29;20145;-94
2023/08/01 15:02:23;;;;;;;0.10;0.10;;;;;;;18.33;100.00;98933.72;4836436;29;20478;-93
2023/08/01 15:04:56;;;;;;;0.85;0.45;;;;;;;18.39;100.00;98992.69;4828657;29;20042;-91
2023/08/01 15:07:25;;;;;;;0.10;0.10;;;;;;;18.13;100.00;98995.81;4858891;29;20428;-92
2023/08/01 15:09:51;;;;;;;0.20;0.20;;;;;;;18.04;100.00;98973.63;4839401;29;20038;-91
2023/08/01 15:12:23;;;;;;;1.02;0.65;;;;;;;17.75;100.00;98923.72;4825713;29;20046;-92
2023/08/01 15:14:50;;;;;;;0.28;0.22;;;;;;;17.75;100.00;98940.53;4837226;29;20126;-92
2023/08/01 15:17:15;;;;;;;0.10;0.10;;;;;;;17.69;100.00;98958.13;4830146;29;20096;-92
2023/08/01 15:19:41;;;;;;;0.77;0.77;;;;;;;17.42;100.00;98911.25;4819860;29;20062;-92
2023/08/01 15:22:06;;;;;;;0.10;0.10;;;;;;;17.50;100.00;98909.44;4851489;29;20140;-93
2023/08/01 15:24:32;;;;;;;0.65;0.57;;;;;;;17.68;100.00;98936.97;4836316;29;20034;-91
2023/08/01 15:26:58;;;;;;;0.22;0.22;;;;;;;17.31;100.00;98916.84;4840792;29;20314;-92
2023/08/01 15:29:23;;;;;;;0.50;0.50;;;;;;;17.53;100.00;98936.47;4839467;29;20109;-92
2023/08/01 15:31:49;;;;;;;0.10;0.10;;;;;;;17.54;100.00;98898.75;4820658;29;20052;-92
2023/08/01 15:34:14;;;;;;;0.38;0.32;;;;;;;17.57;100.00;98886.53;4828013;29;20097;-93
2023/08/01 15:36:46;;;;;;;0.30;0.30;;;;;;;17.32;100.00;98875.56;4817475;29;20038;-92
2023/08/01 15:39:12;;;;;;;0.10;0.10;;;;;;;17.14;100.00;98877.63;4832928;29;20038;-92
2023/08/01 15:41:38;;;;;;;0.40;0.40;;;;;;;17.17;100.00;98893.41;4836201;29;20045;-92
2023/08/01 15:44:03;;;;;;;0.15;0.15;;;;;;;17.42;100.00;98919.66;4821698;29;20514;-91
2023/08/01 15:46:29;;;;;;;0.30;0.30;;;;;;;17.40;100.00;98927.78;4835251;29;20033;-92
2023/08/01 15:48:54;;;;;;;0.17;0.17;;;;;;;17.29;100.00;98921.44;4820890;29;20069;-91
2023/08/01 15:51:20;;;;;;;0.05;0.05;;;;;;;17.32;100.00;98904.34;4849917;29;20046;-91
2023/08/01 15:53:46;;;;;;;2.15;0.68;;;;;;;17.35;100.00;98925.75;4832190;29;20023;-90
2023/08/01 15:56:11;;;;;;;1.05;0.50;;;;;;;17.21;100.00;98921.94;4828219;29;20033;-89
2023/08/01 15:58:38;;;;;;;0.43;0.43;;;;;;;17.12;100.00;98936.19;4830841;29;20042;-91
2023/08/01 16:01:06;;;;;;;0.30;0.30;;;;;;;17.00;100.00;98917.84;4799055;29;20033;-91
2023/08/01 16:03:35;;;;;;;0.60;0.60;;;;;;;17.27;100.00;98933.13;4833112;29;20402;-92
2023/08/01 16:06:03;;;;;;;0.22;0.22;;;;;;;17.28;100.00;98948.69;4825155;29;20513;-91
2023/08/01 16:08:30;;;;;;;0.52;0.47;;;;;;;17.24;100.00;98953.78;4816736;29;20030;-92
2023/08/01 16:10:55;;;;;;;1.08;0.77;;;;;;;17.01;100.00;98899.78;4851155;29;20041;-92
2023/08/01 16:13:21;;;;;;;0.65;0.60;;;;;;;17.04;100.00;98907.16;4837284;29;20401;-91
2023/08/01 16:15:48;;;;;;;0.20;0.20;;;;;;;17.07;100.00;98936.94;4836209;29;20045;-91
2023/08/01 16:18:14;;;;;;;3.20;0.43;;;;;;;17.14;100.00;98988.94;4840519;29;20034;-91
2023/08/01 16:20:40;;;;;;;0.50;0.50;;;;;;;16.96;100.00;98978.19;4845035;29;20394;-91
2023/08/01 16:23:06;;;;;;;0.45;0.45;;;;;;;17.25;100.00;99011.38;4847631;29;20040;-91
2023/08/01 16:25:32;;;;;;;0.20;0.20;;;;;;;17.28;100.00;99007.53;4851342;29;20120;-92
2023/08/01 16:27:58;;;;;;;0.43;0.43;;;;;;;17.14;100.00;98977.72;4853082;29;20133;-92
2023/08/01 16:30:24;;;;;;;0.95;0.65;;;;;;;17.35;100.00;99021.06;4848400;29;20735;-92
2023/08/01 16:32:54;;;;;;;0.70;0.68;;;;;;;17.15;100.00;99019.25;4832895;29;20046;-92
2023/08/01 16:35:23;;;;;;;3.70;0.63;;;;;;;17.08;100.00;98957.34;4830748;29;20057;-93
2023/08/01 16:37:49;;;;;;;0.20;0.20;;;;;;;17.16;100.00;98935.94;4827409;29;20083;-92
2023/08/01 16:40:16;;;;;;;0.28;0.20;;;;;;;17.11;100.00;98959.88;4822896;29;20034;-93
2023/08/01 16:42:44;;;;;;;1.13;0.30;;;;;;;16.76;100.00;98943.53;4830221;29;20038;-93
2023/08/01 16:45:12;;;;;;;0.10;0.10;;;;;;;17.16;100.00;98975.19;4834623;29;20141;-92
2023/08/01 16:47:38;;;;;;;0.22;0.20;;;;;;;16.98;100.00;98940.03;4811442;29;20038;-91
2023/08/01 16:50:04;;;;;;;0.40;0.40;;;;;;;16.92;100.00;98927.25;4829974;29;20124;-92
2023/08/01 16:52:31;;;;;;;0.35;0.22;;;;;;;17.12;100.00;98919.38;4827884;29;20455;-93
2023/08/01 16:54:56;;;;;;;0.10;0.10;;;;;;;16.96;100.00;98902.56;4822045;29;20056;-92
2023/08/01 16:57:22;;;;;;;0.35;0.30;;;;;;;16.95;100.00;98948.66;4847398;29;20041;-92
2023/08/01 16:59:49;;;;;;;0.52;0.52;;;;;;;17.05;100.00;99014.38;4817942;29;20087;-92
2023/08/01 17:02:21;;;;;;;0.38;0.32;;;;;;;17.00;100.00;99027.09;4837241;29;20037;-94
2023/08/01 17:04:48;;;;;;;0.83;0.83;;;;;;;17.09;100.00;99051.31;4818432;29;20523;-94
2023/08/01 17:07:13;;;;;;;0.10;0.10;;;;;;;17.15;100.00;99052.09;4811458;29;20042;-92
2023/08/01 17:09:40;;;;;;;0.38;0.20;;;;;;;17.09;100.00;99035.28;4844961;29;20069;-93
2023/08/01 17:12:09;;;;;;;0.95;0.30;;;;;;;17.03;100.00;99028.13;4834074;29;20050;-92
2023/08/01 17:14:35;;;;;;;0.30;0.30;;;;;;;17.19;100.00;99030.19;4832399;29;20140;-92
2023/08/01 17:17:04;;;;;;;0.40;0.40;;;;;;;17.01;100.00;98999.84;4804381;29;20133;-93
2023/08/01 17:19:33;;;;;;;0.45;0.45;;;;;;;17.01;100.00;99002.66;4831527;29;20061;-94
2023/08/01 17:22:07;;;;;;;0.30;0.30;;;;;;;16.96;100.00;99020.22;4805872;29;20046;-89
2023/08/01 17:24:33;;;;;;;0.57;0.40;;;;;;;16.96;100.00;99037.03;4826611;29;20054;-91
2023/08/01 17:26:59;;;;;;;0.25;0.25;;;;;;;17.01;100.00;99022.28;4827720;29;20038;-91
2023/08/01 17:29:28;;;;;;;0.00;0.00;;;;;;;17.11;100.00;99031.97;4816564;29;20057;-90
2023/08/01 17:31:54;;;;;;;0.10;0.10;;;;;;;17.22;100.00;99048.81;4827059;29;20050;-90
2023/08/01 17:34:21;;;;;;;1.52;0.90;;;;;;;17.24;100.00;99049.84;4816781;29;20042;-90
2023/08/01 17:36:47;;;;;;;0.85;0.38;;;;;;;17.24;100.00;99029.44;4831992;29;20042;-91
2023/08/01 17:39:16;;;;;;;0.47;0.47;;;;;;;17.17;100.00;98999.13;4824510;29;20038;-91
2023/08/01 17:41:45;;;;;;;1.05;1.00;;;;;;;17.34;100.00;98991.50;4821662;29;20045;-91
2023/08/01 17:44:12;;;;;;;1.40;0.22;;;;;;;17.30;100.00;98968.56;4836296;29;20046;-92
2023/08/01 17:46:38;;;;;;;0.40;0.40;;;;;;;17.11;100.00;98931.09;4831012;29;20030;-89
2023/08/01 17:49:07;;;;;;;0.82;0.75;;;;;;;17.06;100.00;98906.66;4819444;29;20065;-91
2023/08/01 17:51:33;;;;;;;0.43;0.43;;;;;;;16.99;100.00;98907.13;4836079;29;20494;-89
2023/08/01 17:53:59;;;;;;;0.95;0.88;;;;;;;16.97;100.00;98915.31;4831426;29;20057;-90
2023/08/01 17:56:38;;;;;;;1.48;1.38;;;;;;;16.69;100.00;98902.03;4835637;29;20042;-91
2023/08/01 17:59:06;;;;;;;0.10;0.10;;;;;;;16.72;100.00;98920.59;4836454;29;20451;-90
2023/08/01 18:01:34;;;;;;;0.63;0.63;;;;;;;16.89;100.00;98959.84;4834264;29;20101;-91
2023/08/01 18:04:00;;;;;;;0.20;0.20;;;;;;;16.99;100.00;98993.97;4820869;29;20423;-91
2023/08/01 18:06:27;;;;;;;0.25;0.25;;;;;;;16.83;100.00;98969.50;4834347;29;20046;-92
2023/08/01 18:08:53;;;;;;;0.10;0.10;;;;;;;16.88;100.00;98988.38;4809314;29;20106;-91
2023/08/01 18:11:19;;;;;;;0.10;0.10;;;;;;;17.15;100.00;99024.06;4837622;29;20121;-92
2023/08/01 18:13:47;;;;;;;0.00;0.00;;;;;;;16.96;100.00;98989.41;4850758;29;20050;-91
2023/08/01 18:16:25;;;;;;;0.10;0.10;;;;;;;17.19;100.00;99024.59;4816204;29;20726;-90
2023/08/01 18:18:52;;;;;;;0.50;0.40;;;;;;;17.15;100.00;99024.06;4834961;29;20041;-91
2023/08/01 18:21:19;;;;;;;0.30;0.30;;;;;;;17.28;100.00;99038.38;4839815;29;20030;-91
2023/08/01 18:23:45;;;;;;;0.20;0.20;;;;;;;17.29;100.00;99028.69;4839516;29;20145;-91
2023/08/01 18:26:22;;;;;;;0.30;0.30;;;;;;;17.29;100.00;99048.31;4837778;29;20061;-92
2023/08/01 18:28:50;;;;;;;1.48;1.38;;;;;;;17.32;100.00;99061.31;4827125;29;20050;-91
2023/08/01 18:31:16;;;;;;;0.10;0.10;;;;;;;17.32;100.00;99057.75;4848694;29;20065;-91
2023/08/01 18:33:42;;;;;;;0.10;0.10;;;;;;;17.27;100.00;99050.84;4835076;29;20041;-91
2023/08/01 18:36:16;;;;;;;0.10;0.10;;;;;;;17.39;100.00;99083.25;4849613;29;20037;-90
2023/08/01 18:38:46;;;;;;;0.25;0.25;;;;;;;17.26;100.00;99091.38;4840371;29;20085;-90
2023/08/01 18:41:13;;;;;;;0.75;0.75;;;;;;;17.30;100.00;99113.56;4838643;29;20038;-92
2023/08/01 18:43:40;;;;;;;0.15;0.15;;;;;;;17.27;100.00;99115.31;4845622;29;20125;-93
2023/08/01 18:46:06;;;;;;;0.30;0.20;;;;;;;17.22;100.00;99111.25;4836158;29;20045;-90
2023/08/01 18:48:33;;;;;;;0.30;0.30;;;;;;;17.23;100.00;99120.38;4837840;29;20086;-92
2023/08/01 18:50:59;;;;;;;0.32;0.32;;;;;;;17.37;100.00;99135.47;4830897;29;20054;-92
2023/08/01 18:53:25;;;;;;;0.40;0.40;;;;;;;17.35;100.00;99121.97;4835628;29;20460;-91
2023/08/01 18:55:51;;;;;;;2.63;0.40;;;;;;;17.27;100.00;99112.50;4832534;29;20050;-91
2023/08/01 18:58:18;;;;;;;1.10;0.70;;;;;;;17.32;100.00;99116.59;4836847;29;20490;-91
2023/08/01 19:00:44;;;;;;;0.57;0.57;;;;;;;17.25;100.00;99117.88;4823165;29;20045;-91
2023/08/01 19:03:12;;;;;;;0.00;0.00;;;;;;;17.17;100.00;99094.41;4837089;29;20025;-91
2023/08/01 19:05:38;;;;;;;2.13;1.20;;;;;;;17.22;100.00;99079.66;4819646;29;20443;-91
2023/08/01 19:08:04;;;;;;;0.43;0.43;;;;;;;17.23;100.00;99064.34;4843542;29;20065;-89
2023/08/01 19:10:31;;;;;;;0.30;0.30;;;;;;;17.32;100.00;99052.91;4836934;29;20041;-91
2023/08/01 19:12:59;;;;;;;0.63;0.50;;;;;;;17.10;100.00;99022.03;4833546;29;20053;-92
2023/08/01 19:15:28;;;;;;;0.03;0.03;;;;;;;17.18;100.00;99026.66;4816995;29;20030;-93
2023/08/01 19:17:54;;;;;;;0.45;0.45;;;;;;;17.21;100.00;99044.47;4815371;29;20062;-91
2023/08/01 19:20:20;;;;;;;0.43;0.43;;;;;;;17.23;100.00;99022.31;4829870;29;20128;-92
2023/08/01 19:22:47;;;;;;;0.45;0.45;;;;;;;17.17;100.00;99027.16;4833968;29;20054;-91
2023/08/01 19:25:14;;;;;;;0.30;0.30;;;;;;;16.99;100.00;99005.19;4830971;29;20447;-93
2023/08/01 19:27:40;;;;;;;0.85;0.85;;;;;;;17.14;100.00;99028.16;4833520;29;20050;-92
2023/08/01 19:30:07;;;;;;;0.25;0.25;;;;;;;16.95;100.00;98988.63;4834287;29;20061;-91
2023/08/01 19:32:33;;;;;;;0.20;0.20;;;;;;;17.21;100.00;99038.88;4820498;29;20060;-92
2023/08/01 19:34:59;;;;;;;0.55;0.50;;;;;;;17.16;100.00;99031.22;4831197;29;20082;-92
2023/08/01 19:37:25;;;;;;;0.00;0.00;;;;;;;17.12;100.00;99016.69;4833583;29;20474;-93
2023/08/01 19:39:51;;;;;;;0.00;0.00;;;;;;;17.11;100.00;99007.50;4838182;29;20037;-93
2023/08/01 19:42:17;;;;;;;0.32;0.32;;;;;;;17.11;100.00;99001.91;4821683;29;20395;-92
2023/08/01 19:44:43;;;;;;;0.17;0.17;;;;;;;17.06;100.00;98999.13;4821231;29;20046;-92
2023/08/01 19:47:12;;;;;;;0.52;0.25;;;;;;;17.12;100.00;98989.44;4818492;29;20045;-92
2023/08/01 19:49:38;;;;;;;2.72;0.40;;;;;;;17.16;100.00;99014.41;4835510;29;20102;-91
2023/08/01 19:52:05;;;;;;;0.25;0.25;;;;;;;17.01;100.00;99025.06;4845005;29;20058;-92
2023/08/01 19:54:32;;;;;;;0.20;0.20;;;;;;;17.14;100.00;99078.59;4823305;29;20148;-91
2023/08/01 19:56:58;;;;;;;0.22;0.20;;;;;;;17.08;100.00;99086.22;4829834;29;20038;-91
2023/08/01 19:59:24;;;;;;;1.83;0.80;;;;;;;17.12;100.00;99092.34;4818184;29;20062;-91
2023/08/01 20:01:50;;;;;;;1.00;0.68;;;;;;;16.92;100.00;99056.88;4842312;29;20056;-93
2023/08/01 20:04:17;;;;;;;0.47;0.47;;;;;;;17.03;100.00;99056.13;4815114;29;20038;-92
2023/08/01 20:06:43;;;;;;;2.42;0.55;;;;;;;16.97;100.00;99035.75;4817039;29;20038;-92
2023/08/01 20:09:08;;;;;;;0.93;0.75;;;;;;;16.83;100.00;99005.91;4818988;29;20612;-93
2023/08/01 20:11:34;;;;;;;0.45;0.20;;;;;;;16.92;100.00;99014.84;4840752;29;20225;-92
2023/08/01 20:14:00;;;;;;;1.25;0.90;;;;;;;16.98;100.00;99026.84;4815614;29;20198;-92
2023/08/01 20:16:27;;;;;;;0.50;0.50;;;;;;;16.82;100.00;98996.00;4814381;29;20147;-91
2023/08/01 20:18:53;;;;;;;0.40;0.40;;;;;;;16.78;100.00;99013.78;4814608;29;20141;-93
2023/08/01 20:21:22;;;;;;;1.80;0.70;;;;;;;16.80;100.00;99027.28;4816193;29;20030;-91
2023/08/01 20:23:48;;;;;;;0.65;0.50;;;;;;;16.76;100.00;99019.13;4845676;29;20046;-92
2023/08/01 20:26:14;;;;;;;0.20;0.20;;;;;;;16.79;100.00;99043.31;4839264;29;20142;-93
2023/08/01 20:28:40;;;;;;;0.10;0.10;;;;;;;16.67;100.00;99044.56;4812617;29;20125;-92
2023/08/01 20:31:06;;;;;;;0.00;0.00;;;;;;;16.65;100.00;99047.09;4814287;29;20482;-92
2023/08/01 20:33:33;;;;;;;1.13;0.75;;;;;;;16.65;100.00;99055.50;4829717;29;20037;-92
2023/08/01 20:35:59;;;;;;;0.20;0.20;;;;;;;16.62;100.00;99073.28;4829412;29;20049;-92
2023/08/01 20:38:25;;;;;;;0.25;0.25;;;;;;;16.45;100.00;99078.03;4842149;29;20101;-92
2023/08/01 20:40:51;;;;;;;1.15;1.05;;;;;;;16.58;100.00;99120.34;4818370;29;20570;-93
2023/08/01 20:43:27;;;;;;;0.73;0.13;;;;;;;16.43;100.00;99094.53;4834715;29;20402;-92
2023/08/01 20:45:55;;;;;;;0.30;0.30;;;;;;;16.49;100.00;99098.16;4832515;29;20130;-92
2023/08/01 20:48:22;;;;;;;0.35;0.35;;;;;;;16.50;100.00;99082.88;4833042;29;20491;-92
2023/08/01 20:50:48;;;;;;;0.10;0.10;;;;;;;16.47;100.00;99078.28;4830552;29;20491;-92
2023/08/01 20:53:14;;;;;;;0.45;0.45;;;;;;;16.48;100.00;99076.25;4817305;29;20061;-91
2023/08/01 20:55:40;;;;;;;0.40;0.40;;;;;;;16.43;100.00;99079.75;4834286;29;20049;-92
2023/08/01 20:58:06;;;;;;;0.00;0.00;;;;;;;16.58;100.00;99111.94;4828490;29;20046;-93
2023/08/01 21:00:32;;;;;;;0.10;0.10;;;;;;;16.59;100.00;99110.69;4822823;29;20136;-91
2023/08/01 21:02:57;;;;;;;0.45;0.43;;;;;;;16.53;100.00;99126.66;4834367;29;20524;-93
2023/08/01 21:05:23;;;;;;;0.28;0.15;;;;;;;16.54;100.00;99161.78;4825039;29;20044;-92
2023/08/01 21:07:48;;;;;;;0.20;0.20;;;;;;;16.51;100.00;99171.19;4839142;29;20432;-92
2023/08/01 21:10:14;;;;;;;0.00;0.00;;;;;;;16.72;100.00;99197.06;4824818;29;20037;-92
2023/08/01 21:12:40;;;;;;;0.60;0.60;;;;;;;16.77;100.00;99182.34;4844972;29;20038;-92
2023/08/01 21:15:06;;;;;;;0.65;0.65;;;;;;;16.55;100.00;99148.56;4829258;29;20022;-93
2023/08/01 21:17:34;;;;;;;0.55;0.55;;;;;;;16.66;100.00;99149.41;4832952;29;20507;-93
2023/08/01 21:20:00;;;;;;;0.20;0.20;;;;;;;16.65;100.00;99131.09;4823269;29;20058;-93
2023/08/01 21:22:25;;;;;;;0.85;0.85;;;;;;;16.66;100.00;99113.00;4828137;29;20060;-93
2023/08/01 21:24:51;;;;;;;0.30;0.30;;;;;;;16.67;100.00;99100.56;4839528;29;20087;-93
2023/08/01 21:27:16;;;;;;;0.30;0.30;;;;;;;16.60;100.00;99092.63;4824827;29;20502;-92
2023/08/01 21:29:42;;;;;;;0.45;0.45;;;;;;;16.75;100.00;99117.66;4837048;29;20077;-94
2023/08/01 21:32:08;;;;;;;0.10;0.10;;;;;;;16.58;100.00;99067.16;4821901;29;20041;-92
2023/08/01 21:34:33;;;;;;;0.32;0.32;;;;;;;16.72;100.00;99083.03;4831361;29;20686;-94
2023/08/01 21:36:59;;;;;;;0.03;0.03;;;;;;;16.61;100.00;99066.19;4845817;29;20117;-93
2023/08/01 21:39:25;;;;;;;0.45;0.45;;;;;;;16.64;100.00;99087.56;4814919;29;20095;-92
2023/08/01 21:41:50;;;;;;;0.80;0.63;;;;;;;16.70;100.00;99093.94;4824697;29;20078;-92
2023/08/01 21:44:16;;;;;;;0.45;0.45;;;;;;;16.67;100.00;99086.56;4815581;29;20494;-93
2023/08/01 21:46:41;;;;;;;0.40;0.40;;;;;;;16.74;100.00;99083.28;4849815;29;20116;-92
2023/08/01 21:49:07;;;;;;;0.65;0.65;;;;;;;16.81;100.00;99075.69;4815424;29;20132;-93
2023/08/01 21:51:32;;;;;;;0.90;0.63;;;;;;;16.80;100.00;99066.50;4815325;29;20041;-92
2023/08/01 21:53:58;;;;;;;0.35;0.32;;;;;;;16.68;100.00;99060.09;4817465;29;20038;-92
2023/08/01 21:56:23;;;;;;;0.30;0.30;;;;;;;16.81;100.00;99095.28;4833187;29;20053;-93
2023/08/01 21:58:49;;;;;;;0.10;0.10;;;;;;;16.76;100.00;99113.59;4817323;29;20038;-92
2023/08/01 22:01:14;;;;;;;0.85;0.65;;;;;;;16.77;100.00;99113.09;4821399;29;20531;-93
2023/08/01 22:03:40;;;;;;;0.68;0.43;;;;;;;16.72;100.00;99118.66;4823520;29;20034;-93
2023/08/01 22:06:05;;;;;;;0.25;0.25;;;;;;;16.69;100.00;99134.44;4841239;29;20087;-93
2023/08/01 22:08:31;;;;;;;0.10;0.10;;;;;;;16.68;100.00;99106.91;4853401;29;20044;-92
2023/08/01 22:11:00;;;;;;;0.60;0.60;;;;;;;16.70;100.00;99130.34;4827913;29;20402;-93
2023/08/01 22:13:25;;;;;;;0.20;0.20;;;;;;;16.63;100.00;99127.25;4847226;29;20042;-92
2023/08/01 22:15:51;;;;;;;0.08;0.08;;;;;;;16.56;100.00;99142.47;4843913;29;20034;-92
2023/08/01 22:18:23;;;;;;;0.28;0.28;;;;;;;16.46;100.00;99138.31;4826234;29;20536;-93
2023/08/01 22:20:53;;;;;;;2.50;0.95;;;;;;;16.45;100.00;99150.78;4839878;29;20054;-94
2023/08/01 22:23:19;;;;;;;0.10;0.10;;;;;;;16.52;100.00;99161.53;4824493;29;20056;-94
2023/08/01 22:25:44;;;;;;;0.10;0.10;;;;;;;16.40;100.00;99097.56;4823552;29;20502;-92
2023/08/01 22:28:10;;;;;;;0.98;0.17;;;;;;;16.48;100.00;99113.41;4819943;29;20038;-92
2023/08/01 22:30:35;;;;;;;0.52;0.52;;;;;;;16.35;100.00;99093.47;4838116;29;20498;-93
2023/08/01 22:33:02;;;;;;;0.35;0.30;;;;;;;16.44;100.00;99101.66;4820799;29;20033;-92
2023/08/01 22:35:28;;;;;;;0.20;0.20;;;;;;;16.56;100.00;99108.88;4835173;29;20095;-93
2023/08/01 22:37:54;;;;;;;0.35;0.35;;;;;;;16.56;100.00;99092.06;4853209;29;20050;-91
2023/08/01 22:40:20;;;;;;;0.17;0.17;;;;;;;16.51;100.00;99045.22;4819841;29;20135;-93
2023/08/01 22:42:45;;;;;;;0.93;0.57;;;;;;;16.50;100.00;99071.66;4816835;29;20487;-92
2023/08/01 22:45:11;;;;;;;0.82;0.22;;;;;;;16.47;100.00;99077.50;4837958;29;20464;-92
2023/08/01 22:47:38;;;;;;;0.20;0.20;;;;;;;16.48;100.00;99088.22;4834413;29;20118;-92
2023/08/01 22:50:04;;;;;;;0.00;0.00;;;;;;;16.53;100.00;99098.69;4819099;29;20044;-92
2023/08/01 22:52:29;;;;;;;0.47;0.30;;;;;;;16.34;100.00;99103.13;4821514;29;20092;-92
2023/08/01 22:54:55;;;;;;;0.43;0.43;;;;;;;16.39;100.00;99107.22;4833451;29;20058;-92
2023/08/01 22:57:20;;;;;;;0.10;0.10;;;;;;;16.40;100.00;99106.72;4831052;29;20045;-93
2023/08/01 22:59:46;;;;;;;0.20;0.10;;;;;;;16.53;100.00;99143.47;4836258;29;20398;-92
2023/08/01 23:02:12;;;;;;;0.17;0.17;;;;;;;16.46;100.00;99146.72;4845020;29;20031;-92
2023/08/01 23:04:37;;;;;;;0.10;0.10;;;;;;;16.36;100.00;99150.97;4845535;29;20219;-93
2023/08/01 23:07:03;;;;;;;0.00;0.00;;;;;;;16.22;100.00;99147.03;4835077;29;20129;-92
2023/08/01 23:09:29;;;;;;;0.10;0.10;;;;;;;16.40;100.00;99157.13;4833272;29;20243;-93
2023/08/01 23:11:54;;;;;;;0.00;0.00;;;;;;;16.48;100.00;99171.41;4817241;29;20034;-92
2023/08/01 23:14:20;;;;;;;0.10;0.10;;;;;;;16.38;100.00;99148.44;4818198;29;20144;-93
2023/08/01 23:16:45;;;;;;;0.28;0.28;;;;;;;16.32;100.00;99161.63;4827005;29;20029;-94
2023/08/01 23:19:11;;;;;;;0.38;0.38;;;;;;;16.28;100.00;99169.50;4817255;29;20081;-94
2023/08/01 23:21:36;;;;;;;0.05;0.05;;;;;;;16.26;100.00;99181.16;4835273;29;20386;-93
2023/08/01 23:24:02;;;;;;;0.10;0.10;;;;;;;16.27;100.00;99176.34;4837281;29;20034;-92
2023/08/01 23:26:27;;;;;;;0.10;0.10;;;;;;;16.17;100.00;99145.00;4820500;29;20494;-92
2023/08/01 23:28:53;;;;;;;0.00;0.00;;;;;;;16.24;100.00;99157.75;4834657;29;20092;-92
2023/08/01 23:31:18;;;;;;;0.30;0.30;;;;;;;16.24;100.00;99163.34;4830009;29;20057;-93
2023/08/01 23:33:44;;;;;;;0.80;0.80;;;;;;;16.18;100.00;99176.50;4849678;29;20134;-92
2023/08/01 23:36:10;;;;;;;0.73;0.55;;;;;;;16.23;100.00;99181.41;4838419;29;20045;-93
2023/08/01 23:38:35;;;;;;;0.73;0.52;;;;;;;16.09;100.00;99182.31;4817746;29;20034;-92
2023/08/01 23:41:12;;;;;;;0.50;0.50;;;;;;;16.11;100.00;99207.75;4837416;29;20037;-93